world map with KPNM marked

KPNM - Airport

This information may not be accurate or current and is not valid for navigation or flight planning. No warranty of fitness for any purpose is made or implied.

flag of Minnesotaflag of United States

Donate via PayPal

Additional information is available on the NEW Great Circle Mapper

Location
City:  Princeton, Minnesota, United States
Name:Princeton Municipal Airport
ICAO:KPNM
FAA:PNM

Details
Type:Airport (Airfield)
Use:Public/Civil
Latitude:45°33'36"N (45.559868)
Longitude:93°36'30"W (-93.608215)
Datum:WGS 1984
Elevation:980 ft (299 m)
Runways:1
Longest:3900 × 75 ft (1189 × 23 m)

Time
Timezone:UTC+28:08 (DST+29:08)
Local Time:

Weather
METAR:KPNM  311854Z AUTO 30004KT 10SM SCT048 27/14 A3002 RMK AO2

Related Locations
Nearby:
Farthest:MGV: 10726 mi / 17261 km
Margaret River, WA, AU

Find:

   beyond  
but within

Other Information
Maps:
Links:
Sources:

  

Sectional Chart

Flight Planning
at skyvector.com

 


Great Circle Mapper   Great Circle Mapper
Great Circle Mapper FAQ   Great Circle Mapper FAQ
  Karl's Home Page
KLSē   KLSē Home
   GC on Facebook
Airlines of the World   Airlines of the World
Donate via PayPal


Copyright © 2004-2014, Karl L. Swartz. All rights reserved.
All trademarks mentioned herein belong to their respective owners.

Please see credits for attribution and copyright information.

Karl Swartz <karl@kls2.com>
  Powered by FreeBSD
Valid HTML 4.01!
Labeled with ICRA
hCard Microformat
Geo Microformat